CheckWX is a tool to help pilots better visualize weather data.  It is not intended as a substitute for an official pre-flight weather briefing.

01:24:22 UTC

KMUI METAR
Muir AAF (Fort Indiantown Gap) Airport
Fort Indiantown Gap(Annville), Pennsylvania, USA
Current

28 mins ago

KMUI 060056Z 29010G18KT 10SM OVC043 04/M05 A3006 RMK AO2A SLP186 T00391053
Observed
Dec-6 @ 00:56 UTC
Wind
  • 290° at 10 KTS
  • Gusting to 18 KTS
Visibility
10 SM
Flight Rules
VFR
Cloud Levels
  • Overcast at 4,300' AGL
Temperature
C / 39°F
Dewpoint
-5°C / 23°F
Humidity
52%
Altimeter
30.06" Hg
Pressure
1017.92 hPa
Previous

1 hour ago

KMUI 052356Z 27010G19KT 10SM OVC045 04/M06 A3005 RMK AO2A SLP183 60000 T00411057 10044 20041 52028
Observed
Dec-5 @ 23:56 UTC
Wind
  • 270° at 10 KTS
  • Gusting to 19 KTS
Visibility
10 SM
Flight Rules
VFR
Cloud Levels
  • Overcast at 4,500' AGL
Temperature
C / 39°F
Dewpoint
-6°C / 21°F
Humidity
48%
Altimeter
30.05" Hg
Pressure
1017.62 hPa
Previous

2 hours ago

KMUI 052256Z 28011G22KT 10SM OVC045 04/M06 A3001 RMK AO2A PK WND 26029/2156 SLP169 T00421058
Observed
Dec-5 @ 22:56 UTC
Wind
  • 280° at 11 KTS
  • Gusting to 22 KTS
Visibility
10 SM
Flight Rules
VFR
Cloud Levels
  • Overcast at 4,500' AGL
Temperature
C / 39°F
Dewpoint
-6°C / 21°F
Humidity
48%
Altimeter
30.01" Hg
Pressure
1016.22 hPa